Impacts METAR Board
IDs:

KBOS - Boston/Logan Intl, MA, US

Updated at: 0900 UTC 18 Jan 2019
Potential Impact None Slight Moderate High
Time 17/21Z 17/22Z 17/23Z 18/00Z 18/01Z 18/02Z 18/03Z 18/04Z 18/05Z 18/06Z 18/07Z 18/08Z 18/09Z
Temp27 25 26 27 27 27 27 27 27 27 29 28 29
Dewpt1 -0 1 3 7 10 10 11 11 11 5 8 9
Altim30.34 30.35 30.35 30.35 30.35 30.34 30.34 30.34 30.32 30.29 30.28 30.27 30.22
VIS10 10 10 10 10 10 10 10 10 10 10 10 10
CIG250 -- -- 120 150 120 120 110 110 140 110 85 70
CoverBKNSCTSCTOVCOVCOVCOVCOVCOVCOVCOVCOVCOVC
FltCatVFRVFRVFRVFRVFRVFRVFRVFRVFRVFRVFRVFRVFR
WX--------------------------
WDir110901401301601601601501501501401700
WSpd6 4 5 9 8 9 6 7 8 8 10 5 0
WGst-- -- -- -- -- -- -- -- -- -- -- -- --
Raw hourly METARs
KBOS 172054Z 11006KT 10SM FEW035 SCT180 BKN250 M03/M17 A3034 RMK AO2 SLP274 T10281172 56008
KBOS 172154Z 09004KT 10SM FEW035 SCT180 SCT250 M04/M18 A3035 RMK AO2 SLP275 T10391178
KBOS 172254Z 14005KT 10SM SCT180 SCT250 M03/M17 A3035 RMK AO2 SLP277 T10331172
KBOS 172354Z 13009KT 10SM BKN120 OVC250 M03/M16 A3035 RMK AO2 SLP277 T10281161 11011 21039 51003
KBOS 180054Z 16008KT 10SM BKN150 OVC220 M03/M14 A3035 RMK AO2 SLP276 T10281139
KBOS 180154Z 16009KT 10SM BKN120 OVC220 M03/M12 A3034 RMK AO2 SLP275 T10281122
KBOS 180254Z 16006KT 10SM OVC120 M03/M12 A3034 RMK AO2 SLP273 T10281122 58004
KBOS 180354Z 15007KT 10SM OVC110 M03/M12 A3034 RMK AO2 SLP273 T10281117
KBOS 180454Z 15008KT 10SM OVC110 M03/M12 A3032 RMK AO2 SLP265 T10281117 400061078
KBOS 180554Z 15008KT 10SM SCT110 OVC140 M03/M12 A3029 RMK AO2 SLP256 T10281117 11028 21028 58017
KBOS 180654Z 14010KT 10SM OVC110 M02/M15 A3028 RMK AO2 SLP251 T10171150
KBOS 180754Z 17005KT 10SM OVC085 M02/M13 A3027 RMK AO2 SLP249 T10221133
KBOS 180854Z 00000KT 10SM OVC070 M02/M13 A3022 RMK AO2 SLP234 T10171128 58022



Page loaded:  09:11 UTC  |   01:11 AM Pacific  |   02:11 AM Mountain  |   03:11 AM Central  |   04:11 AM Eastern

 

ADVISORIES

FORECASTS

FORECASTS

OBSERVATIONS

USER TOOLS

ABOUT US